Time;durP1;ratioP1;P1;durP2;ratioP2;P2;SDS_P1;SDS_P2;PMS_P1;PMS_P2;Temp;Humidity;BMP_temperature;BMP_pressure;BME280_temperature;BME280_humidity;BME280_pressure;Samples;Min_cycle;Max_cycle;Signal;HPM_P1;HPM_P2
2024/04/05 00:00:41;;;;;;;3.00;1.80;;;;;;;;;;5031447;28;20402;-69
2024/04/05 00:03:10;;;;;;;3.60;1.60;;;;;;;;;;5031570;28;20445;-69
2024/04/05 00:05:35;;;;;;;6.50;2.50;;;;;;;;;;5031661;28;20460;-69
2024/04/05 00:08:02;;;;;;;2.90;1.57;;;;;;;;;;5031703;28;20405;-69
2024/04/05 00:10:27;;;;;;;2.60;1.53;;;;;;;;;;5031456;28;20413;-69
2024/04/05 00:12:53;;;;;;;3.60;2.07;;;;;;;;;;5033772;28;20928;-68
2024/04/05 00:15:19;;;;;;;6.60;1.97;;;;;;;;;;5036401;28;20432;-68
2024/04/05 00:17:46;;;;;;;4.70;1.73;;;;;;;;;;5040249;28;20460;-68
2024/04/05 00:20:12;;;;;;;5.20;1.33;;;;;;;;;;5034166;28;20412;-68
2024/04/05 00:22:38;;;;;;;4.70;1.47;;;;;;;;;;5032081;28;20457;-69
2024/04/05 00:25:04;;;;;;;2.30;1.33;;;;;;;;;;5031195;28;20985;-69
2024/04/05 00:27:30;;;;;;;3.90;2.07;;;12.80;25.10;;;;;;5031379;28;20809;-69
2024/04/05 00:29:55;;;;;;;3.00;1.20;;;12.80;25.40;;;;;;5031526;28;20917;-69
2024/04/05 00:32:21;;;;;;;13.60;2.27;;;12.80;26.90;;;;;;5031473;28;20169;-68
2024/04/05 00:34:47;;;;;;;4.57;2.10;;;12.80;27.60;;;;;;5031283;28;20203;-68
2024/04/05 00:37:13;;;;;;;5.53;1.63;;;12.60;28.50;;;;;;5031290;28;20823;-69
2024/04/05 00:39:39;;;;;;;4.07;1.60;;;12.60;30.30;;;;;;5031389;28;20179;-69
2024/04/05 00:42:05;;;;;;;3.13;1.87;;;12.50;30.80;;;;;;5033393;28;20424;-68
2024/04/05 00:44:30;;;;;;;4.10;1.80;;;12.50;30.90;;;;;;5034939;28;20651;-68
2024/04/05 00:46:56;;;;;;;4.17;1.57;;;12.40;31.30;;;;;;5034951;28;20669;-69
2024/04/05 00:49:23;;;;;;;8.53;2.40;;;12.40;31.30;;;;;;5034503;28;20540;-69
2024/04/05 00:51:49;;;;;;;3.77;1.90;;;12.40;31.70;;;;;;5034825;28;20889;-67
2024/04/05 00:54:15;;;;;;;3.80;1.50;;;12.40;31.80;;;;;;5034677;28;20441;-68
2024/04/05 00:56:40;;;;;;;4.60;1.60;;;12.30;31.60;;;;;;5034436;28;20972;-67
2024/04/05 00:59:07;;;;;;;2.50;1.40;;;12.30;30.80;;;;;;5034575;28;20538;-68
2024/04/05 01:01:33;;;;;;;2.90;1.33;;;12.40;29.60;;;;;;5034721;28;20171;-68
2024/04/05 01:03:59;;;;;;;4.90;2.03;;;12.40;29.20;;;;;;5034577;28;20489;-68
2024/04/05 01:06:24;;;;;;;2.50;1.60;;;12.40;28.10;;;;;;5034638;28;20201;-68
2024/04/05 01:08:50;;;;;;;2.70;1.80;;;12.40;27.40;;;;;;5034250;28;20176;-68
2024/04/05 01:11:16;;;;;;;3.60;1.50;;;12.50;26.70;;;;;;5034406;28;20172;-68
2024/04/05 01:13:41;;;;;;;3.73;1.60;;;12.40;26.90;;;;;;5032858;28;20206;-68
2024/04/05 01:16:07;;;;;;;3.80;1.70;;;12.40;26.90;;;;;;5034010;28;20326;-67
2024/04/05 01:18:33;;;;;;;5.50;1.40;;;12.40;26.70;;;;;;5034160;28;20186;-68
2024/04/05 01:21:01;;;;;;;4.50;1.63;;;12.40;27.00;;;;;;5033980;28;20642;-68
2024/04/05 01:23:29;;;;;;;4.87;1.27;;;12.30;27.00;;;;;;5033919;28;20213;-68
2024/04/05 01:25:56;;;;;;;2.80;1.57;;;12.30;27.70;;;;;;5033987;28;20410;-67
2024/04/05 01:28:21;;;;;;;2.53;1.10;;;12.30;27.10;;;;;;5034051;28;20445;-68
2024/04/05 01:30:47;;;;;;;3.13;1.43;;;12.30;27.40;;;;;;5033826;28;20450;-67
2024/04/05 01:33:12;;;;;;;2.90;1.43;;;12.20;27.00;;;;;;5033987;28;20180;-68
2024/04/05 01:35:38;;;;;;;3.27;1.63;;;12.20;27.50;;;;;;5033895;28;20203;-68
2024/04/05 01:38:04;;;;;;;2.93;1.60;;;12.20;27.10;;;;;;5033845;28;20171;-68
2024/04/05 01:40:30;;;;;;;2.33;1.10;;;12.20;27.40;;;;;;5033570;28;20505;-67
2024/04/05 01:42:56;;;;;;;3.30;1.33;;;12.20;26.90;;;;;;5033841;28;20203;-67
2024/04/05 01:45:22;;;;;;;2.30;1.40;;;12.20;26.90;;;;;;5033570;28;20685;-66
2024/04/05 01:47:47;;;;;;;2.60;1.30;;;12.20;26.30;;;;;;5033525;28;20700;-67
2024/04/05 01:50:15;;;;;;;2.93;1.50;;;12.20;27.10;;;;;;5033419;28;20417;-68
2024/04/05 01:52:40;;;;;;;4.80;1.50;;;12.20;26.40;;;;;;5032528;28;20546;-68
2024/04/05 01:55:06;;;;;;;3.20;1.80;;;12.20;26.80;;;;;;5033558;28;20457;-68
2024/04/05 01:57:36;;;;;;;4.17;1.60;;;12.20;25.90;;;;;;5033742;28;20689;-68
2024/04/05 02:00:03;;;;;;;3.90;1.60;;;12.20;25.70;;;;;;5033667;28;20193;-67
2024/04/05 02:02:28;;;;;;;2.30;1.33;;;12.20;25.50;;;;;;5033469;28;20411;-68
2024/04/05 02:04:54;;;;;;;6.73;1.67;;;12.20;25.70;;;;;;5033251;28;20434;-67
2024/04/05 02:07:23;;;;;;;4.43;1.07;;;12.20;24.70;;;;;;5033277;28;20674;-67
2024/04/05 02:09:50;;;;;;;7.83;1.67;;;12.20;24.10;;;;;;5033203;28;20183;-68
2024/04/05 02:12:17;;;;;;;9.67;2.83;;;12.30;23.10;;;;;;5033165;28;20473;-68
2024/04/05 02:14:42;;;;;;;3.03;1.40;;;12.30;21.30;;;;;;5031827;28;21079;-67
2024/04/05 02:17:08;;;;;;;5.87;1.47;;;12.30;21.10;;;;;;5033014;28;20585;-67
2024/04/05 02:19:34;;;;;;;3.50;1.10;;;12.30;21.40;;;;;;5032951;28;20173;-67
2024/04/05 02:22:00;;;;;;;4.57;2.30;;;12.30;20.90;;;;;;5033189;28;20429;-68
2024/04/05 02:24:25;;;;;;;3.43;1.57;;;12.30;20.80;;;;;;5033098;28;20694;-68
2024/04/05 02:26:51;;;;;;;4.13;1.80;;;12.30;20.20;;;;;;5033539;28;20171;-68
2024/04/05 02:29:19;;;;;;;2.47;1.30;;;12.30;20.70;;;;;;5033138;28;20266;-69
2024/04/05 02:31:45;;;;;;;5.50;1.67;;;12.30;19.90;;;;;;5033194;28;20187;-69
2024/04/05 02:34:11;;;;;;;4.43;1.50;;;12.30;19.70;;;;;;5033000;28;20439;-69
2024/04/05 02:36:36;;;;;;;3.70;1.93;;;12.30;19.20;;;;;;5031511;28;20203;-69
2024/04/05 02:39:05;;;;;;;4.80;1.20;;;12.30;18.60;;;;;;5032635;28;20552;-69
2024/04/05 02:41:31;;;;;;;2.90;1.50;;;12.40;18.50;;;;;;5048378;28;20183;-69
2024/04/05 02:43:57;;;;;;;3.70;1.43;;;12.30;18.50;;;;;;5032592;28;20600;-69
2024/04/05 02:46:22;;;;;;;5.77;2.03;;;12.30;18.10;;;;;;5031265;28;20420;-69
2024/04/05 02:48:48;;;;;;;2.53;1.40;;;12.30;19.20;;;;;;5032319;28;20185;-69
2024/04/05 02:51:13;;;;;;;2.30;1.10;;;12.20;19.90;;;;;;5032973;28;20192;-69
2024/04/05 02:53:39;;;;;;;4.73;1.37;;;12.10;20.40;;;;;;5032361;28;20208;-69
2024/04/05 02:56:04;;;;;;;4.20;1.33;;;12.00;21.60;;;;;;5032805;28;20226;-69
2024/04/05 02:58:30;;;;;;;4.43;1.73;;;11.90;22.40;;;;;;5032976;28;20254;-69
2024/04/05 03:00:55;;;;;;;2.37;1.27;;;11.80;23.00;;;;;;5031306;28;20177;-69
2024/04/05 03:03:22;;;;;;;3.00;1.40;;;11.80;23.20;;;;;;5032647;28;20207;-69
2024/04/05 03:05:48;;;;;;;2.57;1.20;;;11.80;23.50;;;;;;5032658;28;20649;-69
2024/04/05 03:08:14;;;;;;;2.30;1.30;;;11.70;23.80;;;;;;5030854;28;20552;-69
2024/04/05 03:10:40;;;;;;;6.17;2.60;;;11.80;23.80;;;;;;5032151;28;20432;-69
2024/04/05 03:13:07;;;;;;;4.10;1.30;;;11.70;23.80;;;;;;5032155;28;20410;-69
2024/04/05 03:15:33;;;;;;;3.90;1.47;;;11.70;23.30;;;;;;5032389;28;20592;-69
2024/04/05 03:17:59;;;;;;;4.23;1.57;;;11.80;22.60;;;;;;5032178;28;20436;-69
2024/04/05 03:20:24;;;;;;;2.70;1.60;;;11.80;22.40;;;;;;5032037;28;20187;-69
2024/04/05 03:22:50;;;;;;;3.13;1.40;;;11.80;22.30;;;;;;5032229;28;20261;-69
2024/04/05 03:25:15;;;;;;;5.40;1.90;;;11.80;21.70;;;;;;5032305;28;20738;-69
2024/04/05 03:27:41;;;;;;;2.57;1.20;;;11.80;22.10;;;;;;5032020;28;20267;-69
2024/04/05 03:30:07;;;;;;;6.63;1.57;;;11.70;22.00;;;;;;5032052;28;20193;-69
2024/04/05 03:32:32;;;;;;;3.37;1.57;;;11.80;21.30;;;;;;5031909;28;20180;-69
2024/04/05 03:34:58;;;;;;;2.23;1.17;;;11.80;21.60;;;;;;5031752;28;21028;-69
2024/04/05 03:37:23;;;;;;;4.33;1.80;;;11.90;20.80;;;;;;5031735;28;20678;-70
2024/04/05 03:39:52;;;;;;;2.50;1.13;;;11.90;20.50;;;;;;5030439;28;20868;-69
2024/04/05 03:42:21;;;;;;;3.07;1.10;;;11.90;19.70;;;;;;5032158;28;20246;-69
2024/04/05 03:44:50;;;;;;;3.20;1.63;;;12.00;19.40;;;;;;5049889;22;20866;-67
2024/04/05 03:47:15;;;;;;;3.67;1.63;;;12.10;18.40;;;;;;5042117;28;20429;-68
2024/04/05 03:49:41;;;;;;;3.07;1.30;;;12.00;18.80;;;;;;5037951;28;20402;-70
2024/04/05 03:52:07;;;;;;;4.50;1.53;;;12.00;19.20;;;;;;5032981;28;20240;-69
2024/04/05 03:54:33;;;;;;;3.37;1.60;;;12.00;19.00;;;;;;5031792;28;20823;-68
2024/04/05 03:56:59;;;;;;;2.93;1.40;;;12.00;18.80;;;;;;5030555;28;20465;-70
2024/04/05 03:59:26;;;;;;;2.63;1.47;;;12.00;18.90;;;;;;5030410;28;20184;-68
2024/04/05 04:01:52;;;;;;;4.80;1.50;;;12.00;18.90;;;;;;5031827;28;20173;-67
2024/04/05 04:04:18;;;;;;;2.77;1.17;;;11.90;18.20;;;;;;5031702;28;20441;-69
2024/04/05 04:06:44;;;;;;;3.00;1.30;;;11.90;18.00;;;;;;5031711;28;20472;-68
2024/04/05 04:09:11;;;;;;;2.50;1.20;;;12.00;18.00;;;;;;5031576;28;20591;-69
2024/04/05 04:11:37;;;;;;;3.43;1.53;;;12.00;17.20;;;;;;5031800;28;20418;-69
2024/04/05 04:14:02;;;;;;;2.33;1.10;;;12.00;16.50;;;;;;5031632;28;20536;-68
2024/04/05 04:16:28;;;;;;;3.40;1.30;;;12.10;16.60;;;;;;5031566;28;20453;-68
2024/04/05 04:18:53;;;;;;;3.83;1.30;;;12.10;16.40;;;;;;5035459;28;20179;-68
2024/04/05 04:21:21;;;;;;;5.40;1.37;;;12.10;16.00;;;;;;5035360;28;20181;-68
2024/04/05 04:23:47;;;;;;;4.40;1.50;;;12.10;16.50;;;;;;5035442;28;20191;-69
2024/04/05 04:26:12;;;;;;;4.67;1.70;;;12.10;16.80;;;;;;5035653;28;20422;-68
2024/04/05 04:28:38;;;;;;;2.80;1.17;;;12.10;17.00;;;;;;5035552;28;20273;-68
2024/04/05 04:31:22;;;;;;;4.13;1.53;;;12.10;18.20;;;;;;5035288;28;20288;-69
2024/04/05 04:33:49;;;;;;;3.43;1.57;;;12.10;17.20;;;;;;5035555;28;20578;-69
2024/04/05 04:36:14;;;;;;;2.80;1.67;;;12.10;17.00;;;;;;5035508;28;20503;-69
2024/04/05 04:38:40;;;;;;;3.97;2.20;;;12.10;17.50;;;;;;5035327;28;20913;-67
2024/04/05 04:41:06;;;;;;;3.90;2.23;;;12.10;17.90;;;;;;5035372;28;20551;-68
2024/04/05 04:43:32;;;;;;;8.57;2.07;;;12.00;17.90;;;;;;5035121;28;20253;-68
2024/04/05 04:46:01;;;;;;;4.10;2.43;;;12.00;18.10;;;;;;5034097;28;20253;-68
2024/04/05 04:48:26;;;;;;;2.90;1.57;;;12.00;18.40;;;;;;5035282;28;20446;-66
2024/04/05 04:50:55;;;;;;;3.20;1.53;;;12.00;17.80;;;;;;5034984;28;20995;-68
2024/04/05 04:53:20;;;;;;;2.97;1.60;;;12.00;17.30;;;;;;5035215;28;20179;-67
2024/04/05 04:55:47;;;;;;;5.30;1.50;;;12.00;16.40;;;;;;5035151;28;20461;-69
2024/04/05 04:58:17;;;;;;;4.97;2.73;;;12.10;15.50;;;;;;5034879;28;20169;-70
2024/04/05 05:00:48;;;;;;;7.00;2.10;;;12.10;16.20;;;;;;5035470;28;20398;-68
2024/04/05 05:03:13;;;;;;;3.40;1.50;;;12.10;16.30;;;;;;5035114;28;20417;-71
2024/04/05 05:05:40;;;;;;;6.47;1.87;;;12.00;16.90;;;;;;5034608;28;20512;-68
2024/04/05 05:08:11;;;;;;;3.77;2.00;;;12.00;19.10;;;;;;5035933;28;20182;-68
2024/04/05 05:10:38;;;;;;;2.80;1.57;;;11.90;19.70;;;;;;5042370;28;20417;-69
2024/04/05 05:13:05;;;;;;;3.30;1.50;;;11.80;21.70;;;;;;5041868;28;20927;-69
2024/04/05 05:15:30;;;;;;;3.83;1.37;;;11.80;21.80;;;;;;5042919;28;20434;-69
2024/04/05 05:17:56;;;;;;;6.00;1.83;;;11.80;21.00;;;;;;5044438;28;20414;-69
2024/04/05 05:20:26;;;;;;;2.83;2.03;;;11.80;22.40;;;;;;5036355;28;20180;-69
2024/04/05 05:22:55;;;;;;;5.07;1.90;;;11.80;22.80;;;;;;5035368;28;20167;-67
2024/04/05 05:25:20;;;;;;;3.03;1.60;;;11.80;23.80;;;;;;5034677;28;20762;-68
2024/04/05 05:27:46;;;;;;;9.17;2.20;;;11.70;24.20;;;;;;5032002;28;20421;-68
2024/04/05 05:30:12;;;;;;;3.83;1.90;;;11.70;25.80;;;;;;5034454;28;20278;-68
2024/04/05 05:32:37;;;;;;;8.40;2.03;;;11.80;25.10;;;;;;5049854;28;20179;-69
2024/04/05 05:35:05;;;;;;;3.30;1.67;;;11.90;25.50;;;;;;5034301;28;20211;-68
2024/04/05 05:37:30;;;;;;;3.27;1.90;;;11.90;25.40;;;;;;5033590;28;20202;-69
2024/04/05 05:39:56;;;;;;;2.90;1.70;;;11.90;26.40;;;;;;5034297;28;20929;-68
2024/04/05 05:42:22;;;;;;;6.60;1.80;;;12.00;25.60;;;;;;5049455;28;20211;-69
2024/04/05 05:44:48;;;;;;;7.33;2.50;;;12.20;27.10;;;;;;5034117;28;20515;-68
2024/04/05 05:47:13;;;;;;;4.33;2.40;;;12.50;24.30;;;;;;5034176;28;20219;-70
2024/04/05 05:49:39;;;;;;;7.13;1.83;;;12.60;22.60;;;;;;5049468;28;20179;-68
2024/04/05 05:52:08;;;;;;;3.23;1.57;;;12.60;21.30;;;;;;5034172;28;20723;-68
2024/04/05 05:54:34;;;;;;;3.70;1.70;;;12.60;20.10;;;;;;5034159;28;20233;-67
2024/04/05 05:57:00;;;;;;;3.30;2.03;;;12.50;20.10;;;;;;5034099;28;20467;-69
2024/04/05 05:59:25;;;;;;;2.70;1.80;;;12.50;20.00;;;;;;5033904;28;20237;-69
2024/04/05 06:01:51;;;;;;;4.00;2.07;;;12.50;19.60;;;;;;5034243;28;20354;-69
2024/04/05 06:04:17;;;;;;;3.60;1.80;;;12.50;20.10;;;;;;5034026;28;20859;-68
2024/04/05 06:06:43;;;;;;;3.73;2.20;;;12.70;19.00;;;;;;5033993;28;20203;-68
2024/04/05 06:09:09;;;;;;;2.80;1.77;;;13.40;15.00;;;;;;5033753;28;20601;-69
2024/04/05 06:11:35;;;;;;;5.27;1.90;;;;;;;;;;5033885;28;20838;-70
2024/04/05 06:14:01;;;;;;;3.23;1.97;;;16.10;3.00;;;;;;5033834;28;20738;-69
2024/04/05 06:16:28;;;;;;;2.73;1.73;;;17.80;1.00;;;;;;5033511;28;20472;-69
2024/04/05 06:18:53;;;;;;;2.30;1.43;;;20.00;1.00;;;;;;5033276;28;20553;-68
2024/04/05 06:21:19;;;;;;;3.13;2.30;;;22.30;1.00;;;;;;5033303;28;20410;-69
2024/04/05 06:23:44;;;;;;;2.97;2.33;;;23.60;1.00;;;;;;5033255;28;20176;-70
2024/04/05 06:26:10;;;;;;;2.87;2.20;;;23.80;1.00;;;;;;5033510;28;20175;-69
2024/04/05 06:28:36;;;;;;;2.30;2.03;;;22.80;1.00;;;;;;5032607;28;20256;-72
2024/04/05 06:31:02;;;;;;;3.00;2.10;;;22.50;1.00;;;;;;5034597;28;20264;-72
2024/04/05 06:33:29;;;;;;;4.57;2.23;;;;;;;;;;5033200;28;20925;-70
2024/04/05 06:36:02;;;;;;;2.70;1.77;;;20.70;1.00;;;;;;5033037;28;20507;-68
2024/04/05 06:38:29;;;;;;;3.33;2.07;;;19.60;1.00;;;;;;5033090;28;20422;-69
2024/04/05 06:40:59;;;;;;;2.37;1.57;;;18.90;1.00;;;;;;5031533;28;20426;-68
2024/04/05 06:43:27;;;;;;;2.87;1.50;;;18.60;1.00;;;;;;5033926;28;20792;-68
2024/04/05 06:45:57;;;;;;;3.67;2.23;;;19.90;1.00;;;;;;5033341;28;20858;-69
2024/04/05 06:48:23;;;;;;;5.47;2.07;;;22.60;1.00;;;;;;5033073;28;20418;-69
2024/04/05 06:50:49;;;;;;;3.60;2.13;;;24.90;1.00;;;;;;5033023;28;20476;-70
2024/04/05 06:53:19;;;;;;;5.37;2.57;;;26.50;1.00;;;;;;5033756;28;20274;-69
2024/04/05 06:55:46;;;;;;;3.60;2.87;;;28.20;1.00;;;;;;5032319;28;20465;-70
2024/04/05 06:58:12;;;;;;;4.33;3.27;;;28.70;1.00;;;;;;5035779;28;20947;-68
2024/04/05 07:00:39;;;;;;;4.60;3.30;;;28.80;1.00;;;;;;5035076;28;20492;-70
2024/04/05 07:03:05;;;;;;;4.77;3.23;;;28.60;1.00;;;;;;5036591;28;20420;-68
2024/04/05 07:05:30;;;;;;;3.97;3.10;;;27.90;1.00;;;;;;5035470;28;20434;-69
2024/04/05 07:07:56;;;;;;;3.60;3.03;;;;;;;;;;5033886;28;20901;-70
2024/04/05 07:10:22;;;;;;;4.77;3.00;;;;;;;;;;5032587;28;20233;-69
2024/04/05 07:12:51;;;;;;;4.30;2.90;;;24.70;3.30;;;;;;5031263;28;20414;-71
2024/04/05 07:15:18;;;;;;;5.83;2.93;;;24.40;1.00;;;;;;5032625;28;20707;-68
2024/04/05 07:17:48;;;;;;;5.30;4.00;;;24.00;1.00;;;;;;5032526;28;20500;-69
2024/04/05 07:20:15;;;;;;;4.93;2.93;;;;;;;;;;5032818;28;20445;-69
2024/04/05 07:22:41;;;;;;;2.37;2.07;;;;;;;;;;5031338;28;20835;-69
2024/04/05 07:25:08;;;;;;;3.27;2.73;;;;;;;;;;5032404;28;20929;-69
2024/04/05 07:27:37;;;;;;;2.83;2.10;;;22.20;1.00;;;;;;5032450;28;20973;-69
2024/04/05 07:30:02;;;;;;;5.10;2.30;;;21.50;1.00;;;;;;5030741;28;20426;-69
2024/04/05 07:32:28;;;;;;;5.03;2.13;;;21.30;1.00;;;;;;5030872;28;20971;-69
2024/04/05 07:34:54;;;;;;;1.90;1.53;;;21.10;1.00;;;;;;5032531;28;20438;-68
2024/04/05 07:37:20;;;;;;;2.50;1.70;;;;;;;;;;5032300;28;20744;-68
2024/04/05 07:39:47;;;;;;;2.60;1.80;;;20.70;1.00;;;;;;5032048;28;20410;-68
2024/04/05 07:42:12;;;;;;;2.33;1.73;;;20.70;1.00;;;;;;5031607;28;20415;-69
2024/04/05 07:44:38;;;;;;;2.30;1.70;;;20.80;1.00;;;;;;5047356;28;20465;-69
2024/04/05 07:47:04;;;;;;;4.40;1.77;;;21.10;1.00;;;;;;5032186;28;20179;-68
2024/04/05 07:49:29;;;;;;;5.97;2.73;;;21.30;1.00;;;;;;5032032;28;20182;-69
2024/04/05 07:51:55;;;;;;;7.33;2.70;;;21.40;1.00;;;;;;5031228;28;20190;-70
2024/04/05 07:54:20;;;;;;;3.40;2.13;;;21.50;1.00;;;;;;5030533;28;20585;-67
2024/04/05 07:56:47;;;;;;;3.40;1.50;;;21.50;1.00;;;;;;5031817;28;20578;-69
2024/04/05 07:59:12;;;;;;;4.30;2.30;;;21.70;1.00;;;;;;5031655;28;20199;-68
2024/04/05 08:01:38;;;;;;;2.33;2.07;;;21.90;1.00;;;;;;5031977;28;20908;-69
2024/04/05 08:04:04;;;;;;;2.57;1.93;;;21.90;1.00;;;;;;5031865;28;20257;-69
2024/04/05 08:06:29;;;;;;;3.83;2.00;;;21.70;1.00;;;;;;5032105;28;20175;-70
2024/04/05 08:08:55;;;;;;;2.57;2.10;;;21.50;1.00;;;;;;5031730;28;20176;-69
2024/04/05 08:11:22;;;;;;;1.90;1.60;;;21.90;1.00;;;;;;5031936;28;20250;-68
2024/04/05 08:13:51;;;;;;;8.40;2.97;;;23.60;1.00;;;;;;5031715;28;20272;-68
2024/04/05 08:16:17;;;;;;;4.80;3.20;;;24.60;1.00;;;;;;5032482;28;20503;-70
2024/04/05 08:18:43;;;;;;;2.97;2.30;;;;;;;;;;5031762;28;20905;-72
2024/04/05 08:21:09;;;;;;;3.57;2.60;;;;;;;;;;5031415;28;20438;-69
2024/04/05 08:23:35;;;;;;;3.50;2.47;;;27.80;1.00;;;;;;5031415;28;20410;-70
2024/04/05 08:26:01;;;;;;;3.20;2.90;;;28.10;1.00;;;;;;5031751;28;20417;-70
2024/04/05 08:28:27;;;;;;;3.07;2.87;;;29.20;1.00;;;;;;5031567;28;20518;-70
2024/04/05 08:30:53;;;;;;;2.67;2.40;;;30.00;1.00;;;;;;5031483;28;20441;-69
2024/04/05 08:33:19;;;;;;;6.03;3.70;;;29.20;1.00;;;;;;5031657;28;20183;-67
2024/04/05 08:35:54;;;;;;;2.97;2.67;;;30.20;1.00;;;;;;5030095;28;20211;-69
2024/04/05 08:38:20;;;;;;;3.30;3.00;;;30.60;1.00;;;;;;5031462;28;20814;-70
2024/04/05 08:40:47;;;;;;;3.30;3.10;;;32.20;1.00;;;;;;5031378;28;20402;-68
2024/04/05 08:43:15;;;;;;;3.60;3.30;;;32.90;1.00;;;;;;5046780;28;20199;-68
2024/04/05 08:45:42;;;;;;;3.50;2.90;;;32.50;1.00;;;;;;5031290;28;20446;-69
2024/04/05 08:48:09;;;;;;;3.73;3.43;;;31.90;1.00;;;;;;5031352;28;20417;-69
2024/04/05 08:50:35;;;;;;;3.70;2.93;;;;;;;;;;5029777;28;20929;-69
2024/04/05 08:53:01;;;;;;;3.67;3.00;;;28.30;1.00;;;;;;5030067;28;20992;-68
2024/04/05 08:55:27;;;;;;;2.87;2.67;;;;;;;;;;5031172;28;20516;-68
2024/04/05 08:57:55;;;;;;;2.67;2.17;;;;;;;;;;5031480;28;20538;-70
2024/04/05 09:00:23;;;;;;;2.60;2.40;;;23.60;1.00;;;;;;5031240;28;20425;-68
2024/04/05 09:02:56;;;;;;;2.20;2.00;;;23.20;1.00;;;;;;5031739;28;20533;-68
2024/04/05 09:05:25;;;;;;;16.03;1.97;;;22.30;1.00;;;;;;5034815;28;20967;-69
2024/04/05 09:08:01;;;;;;;2.30;1.83;;;21.80;1.00;;;;;;5034757;28;20418;-68
2024/04/05 09:10:27;;;;;;;2.87;2.43;;;21.60;1.00;;;;;;5034475;28;20408;-69
2024/04/05 09:12:54;;;;;;;3.13;2.10;;;21.50;1.00;;;;;;5033471;28;20418;-68
2024/04/05 09:15:24;;;;;;;4.10;2.53;;;21.50;1.00;;;;;;5033353;28;20577;-68
2024/04/05 09:17:50;;;;;;;4.93;2.43;;;21.30;1.00;;;;;;5034672;28;20519;-69
2024/04/05 09:20:25;;;;;;;2.23;1.70;;;21.30;1.00;;;;;;5034510;28;20437;-68
2024/04/05 09:23:06;;;;;;;4.63;2.00;;;21.50;1.00;;;;;;5034681;28;20456;-68
2024/04/05 09:25:32;;;;;;;2.53;2.00;;;21.50;1.00;;;;;;5034894;28;20430;-68
2024/04/05 09:28:13;;;;;;;1.93;1.73;;;21.50;1.00;;;;;;5034511;28;20471;-68
2024/04/05 09:30:39;;;;;;;3.10;2.03;;;21.30;1.00;;;;;;5034340;28;20417;-69
2024/04/05 09:33:05;;;;;;;2.20;2.00;;;21.50;1.00;;;;;;5034437;28;20768;-69
2024/04/05 09:35:31;;;;;;;4.50;2.10;;;21.70;1.00;;;;;;5034191;28;20195;-68
2024/04/05 09:37:58;;;;;;;3.40;2.17;;;21.80;1.00;;;;;;5033134;28;20784;-68
2024/04/05 09:40:23;;;;;;;2.97;2.67;;;22.00;1.00;;;;;;5034081;28;20201;-68
2024/04/05 09:42:53;;;;;;;2.53;2.17;;;22.20;1.00;;;;;;5032705;28;20421;-70
2024/04/05 09:45:23;;;;;;;3.23;2.00;;;22.10;1.00;;;;;;5034270;28;20628;-68
2024/04/05 09:47:49;;;;;;;4.37;2.33;;;22.20;1.00;;;;;;5033867;28;20497;-70
2024/04/05 09:50:17;;;;;;;3.90;2.20;;;22.10;1.00;;;;;;5033744;28;20441;-70
2024/04/05 09:52:46;;;;;;;2.93;2.10;;;22.00;1.00;;;;;;5033971;28;20441;-69
2024/04/05 09:55:13;;;;;;;3.50;2.27;;;21.80;1.00;;;;;;5033906;28;20446;-70
2024/04/05 09:57:39;;;;;;;3.07;2.07;;;21.80;1.00;;;;;;5033682;28;21047;-69
2024/04/05 10:00:14;;;;;;;2.97;2.23;;;21.70;1.00;;;;;;5033613;28;20500;-69
2024/04/05 10:03:01;;;;;;;2.27;2.07;;;21.80;1.00;;;;;;5032354;28;20413;-70
2024/04/05 10:05:28;;;;;;;2.40;1.90;;;22.00;1.00;;;;;;5033001;28;20445;-69
2024/04/05 10:07:54;;;;;;;3.53;2.07;;;22.10;1.00;;;;;;5033590;28;20468;-70
2024/04/05 10:10:33;;;;;;;3.10;2.13;;;22.00;1.00;;;;;;5033568;28;20418;-70
2024/04/05 10:13:23;;;;;;;5.00;2.43;;;22.10;1.00;;;;;;5033484;28;20831;-69
2024/04/05 10:15:57;;;;;;;3.87;2.10;;;22.20;1.00;;;;;;5033069;28;20438;-68
2024/04/05 10:18:30;;;;;;;3.33;2.43;;;22.40;1.00;;;;;;5033516;28;20429;-69
2024/04/05 10:21:04;;;;;;;2.80;2.43;;;22.50;1.00;;;;;;5033103;28;20418;-69
2024/04/05 10:23:30;;;;;;;2.80;2.60;;;22.60;1.00;;;;;;5032002;28;20509;-69
2024/04/05 10:25:56;;;;;;;2.63;2.40;;;22.60;1.00;;;;;;5033334;28;20535;-69
2024/04/05 10:28:22;;;;;;;3.10;2.23;;;22.70;1.00;;;;;;5033235;28;20502;-70
2024/04/05 10:30:49;;;;;;;2.80;2.10;;;22.80;1.00;;;;;;5033204;28;20181;-70
2024/04/05 10:33:19;;;;;;;2.73;2.40;;;22.90;1.00;;;;;;5033551;28;20467;-70
2024/04/05 10:35:50;;;;;;;1.97;1.77;;;23.00;1.00;;;;;;5033030;28;20877;-70
2024/04/05 10:38:17;;;;;;;5.83;2.50;;;23.30;1.00;;;;;;5033190;28;20401;-70
2024/04/05 10:40:43;;;;;;;2.80;2.60;;;23.40;1.00;;;;;;5031591;28;20422;-70
2024/04/05 10:43:11;;;;;;;2.60;2.40;;;23.60;1.00;;;;;;5032908;28;20513;-70
2024/04/05 10:45:39;;;;;;;3.27;2.10;;;23.60;1.00;;;;;;5032998;28;20548;-70
2024/04/05 10:48:05;;;;;;;2.83;2.23;;;23.80;1.00;;;;;;5031849;28;20885;-70
2024/04/05 10:50:37;;;;;;;2.73;2.20;;;23.90;1.00;;;;;;5032963;28;20426;-70
2024/04/05 10:53:03;;;;;;;2.83;2.63;;;24.00;1.00;;;;;;5032091;28;20800;-70
2024/04/05 10:55:29;;;;;;;2.70;2.50;;;23.80;1.00;;;;;;5030816;28;20465;-70
2024/04/05 10:57:56;;;;;;;2.90;2.70;;;23.80;1.00;;;;;;5033127;28;20461;-72
2024/04/05 11:00:21;;;;;;;2.53;2.33;;;23.80;1.00;;;;;;5031722;28;20191;-72
2024/04/05 11:02:47;;;;;;;2.97;2.57;;;24.10;1.00;;;;;;5032940;28;20899;-69
2024/04/05 11:05:14;;;;;;;2.80;2.60;;;24.60;1.00;;;;;;5034719;28;20202;-71
2024/04/05 11:07:41;;;;;;;6.13;2.90;;;24.90;1.00;;;;;;5040891;28;20179;-71
2024/04/05 11:10:16;;;;;;;3.27;2.50;;;25.00;1.00;;;;;;5037507;28;20418;-71
2024/04/05 11:12:44;;;;;;;2.70;2.50;;;25.00;1.00;;;;;;5033391;28;20410;-71
2024/04/05 11:15:10;;;;;;;2.60;2.40;;;24.80;1.00;;;;;;5015386;28;20439;-70
2024/04/05 11:17:36;;;;;;;2.97;2.77;;;24.90;1.00;;;;;;5033912;28;20466;-69
2024/04/05 11:20:09;;;;;;;2.40;2.20;;;24.80;1.00;;;;;;5032412;28;20492;-72
2024/04/05 11:22:35;;;;;;;2.80;2.50;;;24.70;1.00;;;;;;5033334;28;20236;-72
2024/04/05 11:25:01;;;;;;;2.47;2.27;;;24.60;1.00;;;;;;5032514;28;20457;-71
2024/04/05 11:27:27;;;;;;;2.70;2.50;;;24.70;1.00;;;;;;5028146;28;20422;-70
2024/04/05 11:29:53;;;;;;;3.43;2.70;;;24.90;1.00;;;;;;5012591;28;20540;-72
2024/04/05 11:32:25;;;;;;;3.20;2.73;;;24.90;1.00;;;;;;5012796;28;20510;-70
2024/04/05 11:34:51;;;;;;;2.50;2.30;;;24.80;1.00;;;;;;5011277;28;20207;-70
2024/04/05 11:37:17;;;;;;;2.70;2.50;;;25.00;1.00;;;;;;5012768;28;20470;-71
2024/04/05 11:39:43;;;;;;;4.33;2.67;;;25.30;1.00;;;;;;5012636;28;20544;-69
2024/04/05 11:42:08;;;;;;;2.90;2.60;;;25.10;1.00;;;;;;5016218;28;20659;-71
2024/04/05 11:44:34;;;;;;;2.73;2.30;;;25.10;1.00;;;;;;5012291;28;20615;-70
2024/04/05 11:47:00;;;;;;;2.77;2.57;;;;;;;;;;5011120;28;20198;-71
2024/04/05 11:49:26;;;;;;;2.73;2.53;;;25.60;1.00;;;;;;5012101;28;20217;-70
2024/04/05 11:51:52;;;;;;;2.97;2.77;;;25.70;1.00;;;;;;5030956;28;20513;-70
2024/04/05 11:54:17;;;;;;;3.20;3.00;;;25.50;1.00;;;;;;5031772;28;21009;-71
2024/04/05 11:56:43;;;;;;;2.50;2.30;;;25.30;1.00;;;;;;5031885;28;20725;-69
2024/04/05 11:59:08;;;;;;;3.10;2.40;;;25.20;1.00;;;;;;5028789;28;20183;-70
2024/04/05 12:01:34;;;;;;;2.87;2.67;;;25.40;1.00;;;;;;5031964;28;20179;-70
2024/04/05 12:03:59;;;;;;;3.67;2.90;;;25.80;1.00;;;;;;5031757;28;20191;-70
2024/04/05 12:06:25;;;;;;;3.07;2.80;;;25.70;1.00;;;;;;5032074;28;20638;-77
2024/04/05 12:08:50;;;;;;;4.10;3.57;;;25.80;1.00;;;;;;5027530;28;20184;-71
2024/04/05 12:11:16;;;;;;;3.13;2.87;;;25.50;1.00;;;;;;5031862;28;20218;-69
2024/04/05 12:13:46;;;;;;;2.87;2.63;;;25.40;1.00;;;;;;5031731;28;20631;-69
2024/04/05 12:16:11;;;;;;;3.10;2.80;;;25.10;1.00;;;;;;5031746;28;20828;-70
2024/04/05 12:18:38;;;;;;;2.60;2.40;;;25.20;1.00;;;;;;5030019;28;20437;-69
2024/04/05 12:21:04;;;;;;;4.93;3.13;;;25.10;1.00;;;;;;5028559;28;20241;-71
2024/04/05 12:23:30;;;;;;;4.07;3.00;;;24.90;1.00;;;;;;5028220;28;20498;-72
2024/04/05 12:25:56;;;;;;;3.07;2.87;;;24.60;1.00;;;;;;5030316;28;20486;-70
2024/04/05 12:28:22;;;;;;;2.87;2.67;;;24.50;1.00;;;;;;5031769;28;20179;-70
2024/04/05 12:30:47;;;;;;;3.40;3.10;;;24.20;1.00;;;;;;5030273;28;20434;-70
2024/04/05 12:33:13;;;;;;;3.17;2.97;;;24.30;1.00;;;;;;5030661;28;20180;-70
2024/04/05 12:35:38;;;;;;;3.03;2.70;;;24.40;1.00;;;;;;5023403;28;20580;-70
2024/04/05 12:38:06;;;;;;;2.93;2.73;;;24.80;1.00;;;;;;5014240;28;20581;-70
2024/04/05 12:40:39;;;;;;;4.60;2.90;;;25.10;1.00;;;;;;5015386;28;20164;-71
2024/04/05 12:43:06;;;;;;;3.40;3.10;;;25.40;1.00;;;;;;5015822;28;20775;-70
2024/04/05 12:45:32;;;;;;;3.60;2.97;;;25.50;1.00;;;;;;5015748;28;20566;-70
2024/04/05 12:47:57;;;;;;;4.60;2.90;;;25.70;1.00;;;;;;5014545;28;20502;-69
2024/04/05 12:50:23;;;;;;;2.83;2.63;;;26.20;1.00;;;;;;5023490;28;20670;-70
2024/04/05 12:52:49;;;;;;;3.33;3.10;;;26.40;1.00;;;;;;5035742;28;20183;-70
2024/04/05 12:55:15;;;;;;;3.17;2.87;;;26.50;1.00;;;;;;5035359;28;20290;-71
2024/04/05 12:57:40;;;;;;;3.30;2.87;;;26.30;1.00;;;;;;5034185;28;20628;-71